Time;durP1;ratioP1;P1;durP2;ratioP2;P2;SDS_P1;SDS_P2;PMS_P1;PMS_P2;Temp;Humidity;BMP_temperature;BMP_pressure;BME280_temperature;BME280_humidity;BME280_pressure;Samples;Min_cycle;Max_cycle;Signal;HPM_P1;HPM_P2
2024/02/20 00:00:50;;;;;;;23.50;4.60;;;7.70;99.90;;;;;;5042432;28;20033;-45
2024/02/20 00:03:16;;;;;;;23.13;4.70;;;7.60;99.90;;;;;;5044626;28;20087;-47
2024/02/20 00:05:42;;;;;;;31.77;5.97;;;7.60;99.90;;;;;;5044935;28;20129;-46
2024/02/20 00:08:07;;;;;;;27.13;5.13;;;7.60;99.90;;;;;;5045676;28;20467;-46
2024/02/20 00:10:33;;;;;;;27.17;6.40;;;7.60;99.90;;;;;;5046797;28;20495;-46
2024/02/20 00:12:58;;;;;;;22.40;4.97;;;7.60;99.90;;;;;;5045764;28;20024;-47
2024/02/20 00:15:24;;;;;;;25.70;5.15;;;7.60;99.90;;;;;;5043123;28;20018;-48
2024/02/20 00:17:50;;;;;;;27.90;4.88;;;7.70;99.90;;;;;;5050402;28;20033;-46
2024/02/20 00:20:15;;;;;;;27.95;4.30;;;7.70;99.90;;;;;;5049231;28;20498;-47
2024/02/20 00:22:41;;;;;;;47.50;4.78;;;7.60;99.90;;;;;;5049459;28;20075;-46
2024/02/20 00:25:07;;;;;;;25.80;5.85;;;7.60;99.90;;;;;;5043804;28;20095;-46
2024/02/20 00:27:33;;;;;;;23.83;5.53;;;7.60;99.90;;;;;;5042232;28;20479;-47
2024/02/20 00:29:59;;;;;;;35.40;6.72;;;7.60;99.90;;;;;;5041721;28;20090;-46
2024/02/20 00:32:24;;;;;;;25.98;4.90;;;7.50;99.90;;;;;;5049027;28;20033;-46
2024/02/20 00:34:50;;;;;;;23.08;6.78;;;7.60;99.90;;;;;;5048094;28;20064;-46
2024/02/20 00:37:16;;;;;;;46.05;7.45;;;7.60;99.90;;;;;;5050235;28;20025;-46
2024/02/20 00:39:42;;;;;;;26.42;5.32;;;7.50;99.90;;;;;;5044519;28;20147;-46
2024/02/20 00:42:08;;;;;;;26.77;5.97;;;7.50;99.90;;;;;;5043199;28;20100;-46
2024/02/20 00:44:34;;;;;;;27.02;5.75;;;7.60;99.90;;;;;;5039165;28;20025;-46
2024/02/20 00:47:00;;;;;;;30.20;5.53;;;7.50;99.90;;;;;;5044396;28;20025;-47
2024/02/20 00:49:25;;;;;;;33.58;5.57;;;7.50;99.90;;;;;;5051342;28;20044;-46
2024/02/20 00:51:51;;;;;;;24.55;4.20;;;7.50;99.90;;;;;;5042654;28;20108;-46
2024/02/20 00:54:17;;;;;;;35.75;8.00;;;7.50;99.90;;;;;;5044449;28;20025;-47
2024/02/20 00:56:44;;;;;;;29.75;5.72;;;7.50;99.90;;;;;;5037693;28;20029;-48
2024/02/20 00:59:11;;;;;;;22.15;5.60;;;7.50;99.90;;;;;;5040463;28;20155;-45
2024/02/20 01:01:37;;;;;;;17.88;5.03;;;7.50;99.90;;;;;;5042562;28;20032;-46
2024/02/20 01:04:04;;;;;;;28.80;5.10;;;7.50;99.90;;;;;;5039953;28;20060;-46
2024/02/20 01:06:29;;;;;;;24.95;5.63;;;7.50;99.90;;;;;;5043571;28;20029;-46
2024/02/20 01:08:55;;;;;;;29.70;5.45;;;7.50;99.90;;;;;;5039351;28;20391;-48
2024/02/20 01:11:20;;;;;;;33.72;6.38;;;7.50;99.90;;;;;;5039788;28;20044;-46
2024/02/20 01:13:46;;;;;;;33.20;5.32;;;7.50;99.90;;;;;;5040203;28;20021;-46
2024/02/20 01:16:12;;;;;;;26.95;5.97;;;7.50;99.90;;;;;;5038540;28;20442;-46
2024/02/20 01:18:41;;;;;;;32.90;6.63;;;7.50;99.90;;;;;;5038031;28;20029;-47
2024/02/20 01:21:07;;;;;;;31.95;5.47;;;7.50;99.90;;;;;;5036989;28;20041;-47
2024/02/20 01:23:33;;;;;;;34.92;6.07;;;7.50;99.90;;;;;;5037704;28;20021;-45
2024/02/20 01:25:58;;;;;;;24.13;5.28;;;7.50;99.90;;;;;;5001960;28;1093007;-46
2024/02/20 01:28:24;;;;;;;25.63;5.95;;;7.50;99.90;;;;;;5039197;28;20026;-47
2024/02/20 01:30:51;;;;;;;34.13;7.47;;;7.50;99.90;;;;;;5044907;28;20025;-46
2024/02/20 01:33:16;;;;;;;23.95;5.00;;;7.50;99.90;;;;;;5045913;28;20037;-47
2024/02/20 01:35:42;;;;;;;26.77;4.95;;;7.50;99.90;;;;;;5045176;28;20376;-46
2024/02/20 01:38:08;;;;;;;27.77;6.70;;;7.50;99.90;;;;;;5045497;28;20092;-47
2024/02/20 01:40:36;;;;;;;34.22;6.07;;;7.40;99.90;;;;;;5029656;28;20060;-46
2024/02/20 01:43:04;;;;;;;33.35;7.55;;;7.40;99.90;;;;;;5041305;28;20036;-46
2024/02/20 01:45:31;;;;;;;28.83;7.25;;;7.50;99.90;;;;;;5038263;28;20029;-46
2024/02/20 01:48:00;;;;;;;25.10;5.18;;;7.50;99.90;;;;;;5040092;28;20459;-47
2024/02/20 01:50:27;;;;;;;23.75;5.38;;;7.50;99.90;;;;;;5038887;28;20079;-45
2024/02/20 01:52:53;;;;;;;22.48;4.68;;;7.50;99.90;;;;;;5039046;28;20028;-46
2024/02/20 01:55:22;;;;;;;19.02;6.53;;;7.40;99.90;;;;;;5039347;28;20041;-47
2024/02/20 01:57:48;;;;;;;23.10;6.00;;;7.40;99.90;;;;;;5040978;28;20064;-47
2024/02/20 02:00:14;;;;;;;30.10;5.13;;;7.50;99.90;;;;;;5039056;28;20044;-46
2024/02/20 02:02:41;;;;;;;31.73;5.55;;;7.40;99.90;;;;;;5039156;28;20036;-47
2024/02/20 02:05:07;;;;;;;27.10;6.07;;;7.40;99.90;;;;;;5039477;28;20060;-46
2024/02/20 02:07:32;;;;;;;23.67;4.70;;;7.40;99.90;;;;;;5042993;28;20060;-46
2024/02/20 02:09:58;;;;;;;28.65;5.60;;;7.40;99.90;;;;;;5048593;28;20033;-46
2024/02/20 02:12:24;;;;;;;26.63;5.25;;;7.40;99.90;;;;;;5045999;28;20032;-46
2024/02/20 02:14:49;;;;;;;36.08;5.30;;;7.30;99.90;;;;;;5042012;28;20058;-47
2024/02/20 02:17:15;;;;;;;27.38;5.35;;;7.40;99.90;;;;;;5041996;28;20060;-47
2024/02/20 02:19:41;;;;;;;18.85;6.43;;;7.30;99.90;;;;;;5041653;28;20049;-46
2024/02/20 02:22:07;;;;;;;34.10;7.28;;;7.40;99.90;;;;;;5041588;28;20029;-47
2024/02/20 02:24:36;;;;;;;30.55;7.03;;;7.40;99.90;;;;;;5042912;28;20449;-46
2024/02/20 02:27:06;;;;;;;37.35;7.15;;;7.40;99.90;;;;;;5048009;28;20072;-47
2024/02/20 02:29:31;;;;;;;29.67;6.40;;;7.40;99.90;;;;;;5029108;28;20743;-46
2024/02/20 02:31:58;;;;;;;32.20;9.02;;;7.40;99.90;;;;;;5042084;28;20024;-46
2024/02/20 02:34:30;;;;;;;31.77;8.05;;;7.40;99.90;;;;;;5041063;28;20037;-46
2024/02/20 02:36:55;;;;;;;23.38;7.47;;;7.30;99.90;;;;;;5048231;28;20044;-46
2024/02/20 02:39:23;;;;;;;23.67;7.35;;;7.30;99.90;;;;;;5016567;28;20057;-46
2024/02/20 02:41:51;;;;;;;31.35;7.18;;;7.30;99.90;;;;;;5048370;28;20033;-46
2024/02/20 02:44:18;;;;;;;32.13;7.13;;;7.30;99.90;;;;;;5041898;28;20025;-46
2024/02/20 02:46:44;;;;;;;38.47;7.57;;;7.30;99.90;;;;;;5044908;28;20025;-46
2024/02/20 02:49:10;;;;;;;34.85;7.45;;;7.30;99.90;;;;;;5046586;28;20025;-46
2024/02/20 02:51:35;;;;;;;26.40;8.63;;;7.30;99.90;;;;;;5046103;28;20144;-45
2024/02/20 02:54:01;;;;;;;42.72;7.68;;;7.30;99.90;;;;;;5041838;28;20037;-46
2024/02/20 02:56:30;;;;;;;31.48;8.15;;;7.30;99.90;;;;;;5042802;28;20064;-46
2024/02/20 02:58:58;;;;;;;24.90;7.32;;;7.30;99.90;;;;;;5043300;28;20059;-46
2024/02/20 03:01:25;;;;;;;25.35;6.32;;;7.20;99.90;;;;;;5045835;28;20037;-48
2024/02/20 03:03:51;;;;;;;47.58;6.88;;;7.20;99.90;;;;;;5037224;28;20124;-49
2024/02/20 03:06:17;;;;;;;24.27;6.05;;;7.30;99.90;;;;;;5040562;28;20161;-47
2024/02/20 03:08:45;;;;;;;24.83;6.68;;;7.20;99.90;;;;;;5039490;28;20108;-46
2024/02/20 03:11:11;;;;;;;29.38;6.35;;;7.20;99.90;;;;;;5048770;28;20028;-49
2024/02/20 03:13:37;;;;;;;20.40;5.93;;;7.20;99.90;;;;;;5044790;28;20030;-47
2024/02/20 03:16:04;;;;;;;25.50;5.55;;;7.10;99.90;;;;;;5043001;28;20032;-46
2024/02/20 03:18:35;;;;;;;35.42;6.85;;;7.10;99.90;;;;;;5049024;28;20057;-47
2024/02/20 03:21:01;;;;;;;29.80;6.82;;;7.10;99.90;;;;;;5040308;28;20449;-47
2024/02/20 03:23:28;;;;;;;26.02;7.20;;;7.10;99.90;;;;;;5042699;28;20038;-48
2024/02/20 03:25:54;;;;;;;37.15;8.88;;;7.10;99.90;;;;;;5041264;28;20127;-46
2024/02/20 03:28:19;;;;;;;27.33;6.85;;;7.10;99.90;;;;;;5043293;28;20485;-46
2024/02/20 03:30:45;;;;;;;33.45;8.73;;;7.10;99.90;;;;;;5047910;28;20033;-47
2024/02/20 03:33:11;;;;;;;38.25;9.30;;;7.10;99.90;;;;;;5046958;28;20068;-47
2024/02/20 03:35:36;;;;;;;27.15;6.80;;;7.10;99.90;;;;;;5040914;28;20487;-47
2024/02/20 03:38:03;;;;;;;32.85;7.95;;;7.10;99.90;;;;;;5043879;28;20029;-47
2024/02/20 03:40:29;;;;;;;34.78;9.40;;;7.10;99.90;;;;;;5030397;28;20103;-46
2024/02/20 03:42:54;;;;;;;29.80;7.15;;;7.10;99.90;;;;;;5045276;28;20482;-50
2024/02/20 03:45:20;;;;;;;29.33;7.88;;;7.10;99.90;;;;;;5041664;28;20025;-46
2024/02/20 03:47:45;;;;;;;34.42;8.98;;;7.10;99.90;;;;;;5041903;28;20118;-47
2024/02/20 03:50:11;;;;;;;26.88;7.90;;;7.10;99.90;;;;;;5040935;28;20505;-48
2024/02/20 03:52:36;;;;;;;26.40;6.88;;;7.10;99.90;;;;;;5039487;28;20588;-47
2024/02/20 03:55:02;;;;;;;36.25;8.68;;;7.10;99.90;;;;;;5039880;28;21567;-47
2024/02/20 03:57:27;;;;;;;38.45;8.43;;;7.10;99.90;;;;;;5038021;28;20465;-46
2024/02/20 03:59:55;;;;;;;33.15;7.03;;;7.10;99.90;;;;;;5038577;28;20036;-47
2024/02/20 04:02:21;;;;;;;26.58;6.30;;;7.10;99.90;;;;;;5037614;28;20533;-47
2024/02/20 04:04:46;;;;;;;24.75;6.72;;;7.10;99.90;;;;;;5038631;28;20047;-47
2024/02/20 04:07:12;;;;;;;20.55;5.38;;;7.00;99.90;;;;;;5037487;28;20103;-49
2024/02/20 04:09:38;;;;;;;24.40;7.22;;;7.00;99.90;;;;;;5039566;28;20025;-49
2024/02/20 04:12:04;;;;;;;29.05;6.30;;;7.00;99.90;;;;;;5040064;28;20493;-47
2024/02/20 04:14:29;;;;;;;24.92;6.28;;;7.00;99.90;;;;;;5037408;28;20068;-45
2024/02/20 04:16:55;;;;;;;41.75;7.15;;;6.90;99.90;;;;;;5037341;28;20045;-47
2024/02/20 04:19:20;;;;;;;26.63;5.72;;;6.80;99.90;;;;;;5038052;28;20075;-47
2024/02/20 04:21:46;;;;;;;26.95;7.50;;;6.80;99.90;;;;;;5039970;28;20032;-46
2024/02/20 04:24:11;;;;;;;35.85;7.25;;;6.80;99.90;;;;;;5037334;28;20039;-47
2024/02/20 04:26:37;;;;;;;20.13;6.45;;;6.80;99.90;;;;;;5036214;28;20099;-47
2024/02/20 04:29:02;;;;;;;30.17;6.88;;;6.70;99.90;;;;;;5039046;28;21583;-50
2024/02/20 04:31:28;;;;;;;35.13;6.95;;;6.70;99.90;;;;;;5041550;28;20021;-46
2024/02/20 04:33:53;;;;;;;21.13;7.22;;;6.70;99.90;;;;;;5050243;28;20091;-47
2024/02/20 04:36:20;;;;;;;25.10;7.45;;;6.70;99.90;;;;;;5047709;28;20024;-47
2024/02/20 04:38:46;;;;;;;48.47;6.97;;;6.70;99.90;;;;;;5029700;28;20525;-47
2024/02/20 04:41:11;;;;;;;32.92;7.00;;;6.70;99.90;;;;;;5046510;28;20037;-47
2024/02/20 04:43:37;;;;;;;34.55;6.57;;;6.70;99.90;;;;;;5044380;28;20079;-47
2024/02/20 04:46:05;;;;;;;29.92;6.38;;;6.70;99.90;;;;;;5043703;28;20082;-47
2024/02/20 04:48:31;;;;;;;29.98;7.18;;;6.70;99.90;;;;;;5050134;28;20487;-47
2024/02/20 04:50:57;;;;;;;36.88;6.63;;;6.70;99.90;;;;;;5048312;28;20040;-47
2024/02/20 04:53:22;;;;;;;31.70;6.05;;;6.70;99.90;;;;;;5043462;28;20025;-46
2024/02/20 04:55:48;;;;;;;26.70;5.72;;;6.70;99.90;;;;;;5047457;28;20025;-46
2024/02/20 04:58:13;;;;;;;23.98;5.45;;;6.70;99.90;;;;;;5021922;28;20032;-47
2024/02/20 05:00:39;;;;;;;40.25;8.27;;;6.80;99.90;;;;;;5040441;28;20060;-47
2024/02/20 05:03:04;;;;;;;38.47;7.65;;;6.80;99.90;;;;;;5042472;28;20044;-47
2024/02/20 05:05:31;;;;;;;31.67;5.72;;;6.80;99.90;;;;;;5040528;28;20029;-47
2024/02/20 05:07:57;;;;;;;35.90;7.70;;;6.80;99.90;;;;;;5043136;28;20025;-47
2024/02/20 05:10:23;;;;;;;20.30;5.30;;;6.80;99.90;;;;;;5026640;28;20026;-47
2024/02/20 05:12:48;;;;;;;41.75;7.03;;;6.80;99.90;;;;;;5044800;28;21488;-47
2024/02/20 05:15:14;;;;;;;42.33;7.35;;;6.80;99.90;;;;;;5040835;28;20029;-47
2024/02/20 05:17:40;;;;;;;36.08;8.02;;;6.80;99.90;;;;;;5041846;28;20041;-46
2024/02/20 05:20:07;;;;;;;20.77;6.03;;;6.70;99.90;;;;;;5041971;28;20116;-47
2024/02/20 05:22:32;;;;;;;25.95;5.22;;;6.70;99.90;;;;;;5042529;28;20490;-46
2024/02/20 05:24:58;;;;;;;26.70;6.30;;;6.60;99.90;;;;;;5040601;28;20036;-49
2024/02/20 05:27:24;;;;;;;24.70;6.55;;;6.60;99.90;;;;;;5049345;28;20116;-51
2024/02/20 05:29:49;;;;;;;16.20;5.53;;;6.60;99.90;;;;;;5048051;28;20025;-55
2024/02/20 05:32:15;;;;;;;35.72;7.20;;;6.60;99.90;;;;;;5045779;28;20499;-49
2024/02/20 05:34:41;;;;;;;22.85;6.15;;;6.60;99.90;;;;;;5047088;28;20048;-50
2024/02/20 05:37:06;;;;;;;27.58;6.60;;;6.60;99.90;;;;;;5041056;28;20025;-49
2024/02/20 05:39:32;;;;;;;30.73;7.25;;;6.60;99.90;;;;;;5028254;28;20045;-53
2024/02/20 05:41:57;;;;;;;31.45;6.03;;;6.60;99.90;;;;;;5045387;28;20123;-50
2024/02/20 05:44:23;;;;;;;32.65;6.85;;;6.50;99.90;;;;;;5043371;28;20134;-49
2024/02/20 05:46:49;;;;;;;21.15;5.85;;;6.50;99.90;;;;;;5047578;28;20098;-49
2024/02/20 05:49:14;;;;;;;40.30;7.45;;;6.40;99.90;;;;;;5044701;28;20040;-53
2024/02/20 05:51:40;;;;;;;26.02;6.43;;;6.30;99.90;;;;;;5043340;28;20035;-49
2024/02/20 05:54:05;;;;;;;28.02;7.07;;;6.30;99.90;;;;;;5048849;28;20056;-49
2024/02/20 05:56:36;;;;;;;27.25;6.43;;;6.20;99.90;;;;;;5045737;28;20049;-49
2024/02/20 05:59:02;;;;;;;26.90;6.70;;;6.10;99.90;;;;;;5047894;28;20036;-53
2024/02/20 06:01:28;;;;;;;25.02;6.35;;;6.10;99.90;;;;;;5044547;28;20079;-50
2024/02/20 06:03:53;;;;;;;33.80;8.18;;;6.00;99.90;;;;;;5041608;28;20048;-49
2024/02/20 06:06:20;;;;;;;29.25;8.38;;;5.90;99.90;;;;;;5049586;28;20447;-52
2024/02/20 06:08:46;;;;;;;27.00;6.18;;;5.90;99.90;;;;;;5048485;28;20392;-50
2024/02/20 06:11:15;;;;;;;29.55;5.97;;;5.90;99.90;;;;;;5046819;28;20033;-53
2024/02/20 06:13:42;;;;;;;42.53;8.85;;;5.80;99.90;;;;;;5049492;28;20545;-52
2024/02/20 06:16:07;;;;;;;40.72;8.27;;;5.80;99.90;;;;;;5046546;28;20087;-52
2024/02/20 06:18:33;;;;;;;21.10;6.57;;;5.80;99.90;;;;;;5045863;28;20415;-49
2024/02/20 06:20:59;;;;;;;33.10;6.93;;;5.70;99.90;;;;;;5046112;28;20036;-50
2024/02/20 06:23:24;;;;;;;21.38;5.60;;;5.70;99.90;;;;;;5044203;28;20025;-49
2024/02/20 06:25:50;;;;;;;37.80;9.10;;;5.70;99.90;;;;;;5045008;28;20024;-51
2024/02/20 06:28:17;;;;;;;23.02;6.45;;;5.70;99.90;;;;;;5045749;28;20028;-49
2024/02/20 06:30:42;;;;;;;23.35;7.32;;;5.70;99.90;;;;;;5043432;28;20064;-49
2024/02/20 06:33:08;;;;;;;33.40;8.23;;;5.80;99.90;;;;;;5044904;28;20446;-51
2024/02/20 06:35:34;;;;;;;36.97;7.65;;;5.80;99.90;;;;;;5046542;28;20078;-48
2024/02/20 06:37:59;;;;;;;31.63;7.47;;;5.80;99.90;;;;;;5048299;28;20100;-49
2024/02/20 06:40:25;;;;;;;38.53;8.00;;;5.80;99.90;;;;;;5024463;28;20431;-49
2024/02/20 06:42:51;;;;;;;41.03;9.55;;;5.80;99.90;;;;;;5035472;28;20392;-50
2024/02/20 06:45:16;;;;;;;30.95;9.68;;;5.80;99.90;;;;;;5043861;28;20029;-48
2024/02/20 06:47:44;;;;;;;39.33;9.90;;;5.80;99.90;;;;;;5046101;28;20025;-49
2024/02/20 06:50:12;;;;;;;41.35;9.05;;;5.90;99.90;;;;;;5046838;28;20028;-49
2024/02/20 06:52:39;;;;;;;45.30;9.07;;;5.90;99.90;;;;;;5042961;28;20037;-52
2024/02/20 06:55:07;;;;;;;34.53;8.43;;;5.90;99.90;;;;;;5044921;28;20044;-54
2024/02/20 06:57:35;;;;;;;29.00;8.88;;;6.00;99.90;;;;;;5043797;28;20026;-51
2024/02/20 07:00:01;;;;;;;34.83;9.70;;;6.00;99.90;;;;;;5049240;28;20112;-49
2024/02/20 07:02:27;;;;;;;38.40;9.07;;;6.00;99.90;;;;;;5045632;28;20032;-53
2024/02/20 07:04:54;;;;;;;54.17;9.82;;;6.00;99.90;;;;;;5048046;28;20036;-49
2024/02/20 07:07:20;;;;;;;40.15;10.45;;;6.10;99.90;;;;;;5047399;28;20475;-49
2024/02/20 07:09:46;;;;;;;29.40;9.15;;;6.10;99.90;;;;;;5045985;28;20026;-53
2024/02/20 07:12:12;;;;;;;35.55;9.38;;;6.10;99.90;;;;;;5043826;28;20401;-49
2024/02/20 07:14:38;;;;;;;36.35;9.57;;;6.20;99.90;;;;;;5048603;28;20033;-49
2024/02/20 07:17:04;;;;;;;38.67;9.98;;;6.30;99.90;;;;;;5045086;28;20036;-49
2024/02/20 07:19:29;;;;;;;39.92;9.23;;;6.30;99.90;;;;;;5045043;28;20091;-50
2024/02/20 07:21:55;;;;;;;28.48;8.50;;;6.40;99.90;;;;;;5044478;28;20047;-52
2024/02/20 07:24:21;;;;;;;40.47;9.55;;;6.50;99.90;;;;;;5045040;28;20063;-49
2024/02/20 07:26:47;;;;;;;44.70;9.82;;;6.60;99.90;;;;;;5043370;28;20471;-49
2024/02/20 07:29:12;;;;;;;25.58;8.68;;;6.70;99.90;;;;;;5045459;28;20025;-51
2024/02/20 07:31:38;;;;;;;44.25;9.73;;;6.80;99.90;;;;;;5047625;28;20017;-52
2024/02/20 07:34:04;;;;;;;37.28;10.32;;;6.90;99.90;;;;;;5049210;28;20021;-51
2024/02/20 07:36:29;;;;;;;35.03;8.90;;;6.90;99.90;;;;;;5047962;28;20099;-49
2024/02/20 07:38:56;;;;;;;32.28;10.20;;;7.00;99.90;;;;;;5048887;28;20029;-53
2024/02/20 07:41:22;;;;;;;28.90;10.80;;;7.00;99.90;;;;;;5038442;28;20112;-52
2024/02/20 07:43:47;;;;;;;37.47;10.65;;;7.20;99.90;;;;;;5046994;28;20475;-50
2024/02/20 07:46:14;;;;;;;30.48;9.13;;;7.20;99.90;;;;;;5048770;28;20029;-49
2024/02/20 07:48:40;;;;;;;40.25;9.77;;;7.20;99.90;;;;;;5047308;28;20025;-52
2024/02/20 07:51:07;;;;;;;31.63;9.05;;;7.30;99.90;;;;;;5043814;28;20021;-51
2024/02/20 07:53:33;;;;;;;33.90;9.45;;;7.30;99.90;;;;;;5028234;28;20025;-49
2024/02/20 07:55:58;;;;;;;30.13;8.98;;;7.40;99.90;;;;;;5047981;28;20453;-49
2024/02/20 07:58:24;;;;;;;44.17;11.23;;;7.40;99.90;;;;;;5042560;28;20029;-54
2024/02/20 08:00:50;;;;;;;29.30;9.48;;;7.50;99.90;;;;;;5047965;28;20086;-49
2024/02/20 08:03:16;;;;;;;25.95;9.57;;;7.50;99.90;;;;;;5048390;28;20043;-52
2024/02/20 08:05:43;;;;;;;27.65;8.93;;;7.50;99.90;;;;;;5048654;28;20060;-50
2024/02/20 08:08:09;;;;;;;30.25;8.70;;;7.50;99.90;;;;;;5048971;28;20028;-51
2024/02/20 08:10:34;;;;;;;21.13;9.75;;;7.50;99.90;;;;;;5045148;28;20029;-52
2024/02/20 08:13:00;;;;;;;29.45;8.07;;;7.70;99.90;;;;;;5045454;28;20021;-50
2024/02/20 08:15:25;;;;;;;35.47;9.95;;;7.80;99.90;;;;;;5050145;28;20429;-51
2024/02/20 08:17:51;;;;;;;23.40;9.82;;;7.90;99.90;;;;;;5051806;28;20478;-52
2024/02/20 08:20:16;;;;;;;23.70;8.85;;;8.00;99.90;;;;;;5051060;28;20021;-55
2024/02/20 08:22:43;;;;;;;28.92;10.68;;;8.00;99.90;;;;;;5048295;28;20486;-52
2024/02/20 08:25:08;;;;;;;31.73;9.68;;;8.00;99.90;;;;;;5049999;28;20090;-49
2024/02/20 08:27:35;;;;;;;32.75;9.52;;;8.00;99.90;;;;;;5047809;28;20025;-51
2024/02/20 08:30:00;;;;;;;37.20;10.07;;;8.00;99.90;;;;;;5052463;28;20024;-50
2024/02/20 08:32:26;;;;;;;25.38;9.43;;;8.20;99.90;;;;;;5049666;28;20036;-50
2024/02/20 08:34:52;;;;;;;32.58;10.50;;;8.20;99.90;;;;;;5045778;28;20028;-51
2024/02/20 08:37:17;;;;;;;37.85;11.23;;;8.20;99.90;;;;;;5048469;28;20569;-52
2024/02/20 08:39:44;;;;;;;56.65;22.38;;;8.20;99.90;;;;;;5036421;28;20044;-50
2024/02/20 08:42:10;;;;;;;110.50;36.63;;;8.20;99.90;;;;;;5047997;28;20025;-54
2024/02/20 08:44:35;;;;;;;171.63;50.60;;;8.20;99.90;;;;;;5046892;28;20119;-53
2024/02/20 08:47:01;;;;;;;89.72;29.80;;;8.30;99.90;;;;;;5050063;28;20029;-50
2024/02/20 08:49:26;;;;;;;88.47;33.60;;;8.50;99.90;;;;;;5048848;28;20120;-50
2024/02/20 08:51:52;;;;;;;31.00;10.45;;;8.70;99.90;;;;;;5047841;28;20054;-49
2024/02/20 08:54:17;;;;;;;30.35;10.75;;;8.90;99.90;;;;;;5048437;28;20401;-49
2024/02/20 08:56:43;;;;;;;41.17;13.05;;;9.20;99.90;;;;;;5049273;28;20466;-50
2024/02/20 08:59:08;;;;;;;35.70;9.40;;;9.30;99.90;;;;;;5048929;28;20056;-52
2024/02/20 09:01:37;;;;;;;25.25;9.07;;;9.40;99.90;;;;;;5049081;28;20059;-50
2024/02/20 09:04:03;;;;;;;27.63;10.43;;;9.30;99.90;;;;;;5047080;28;20041;-51
2024/02/20 09:06:29;;;;;;;50.17;22.17;;;9.40;99.90;;;;;;5043307;28;20028;-53
2024/02/20 09:08:55;;;;;;;41.15;18.85;;;9.40;99.90;;;;;;5032629;28;20550;-52
2024/02/20 09:11:20;;;;;;;23.45;9.13;;;9.50;99.90;;;;;;5046887;28;20024;-51
2024/02/20 09:13:46;;;;;;;33.38;7.53;;;9.60;99.90;;;;;;5045144;28;20017;-50
2024/02/20 09:16:11;;;;;;;28.73;8.00;;;9.60;99.90;;;;;;5047461;28;20112;-52
2024/02/20 09:18:37;;;;;;;37.72;13.90;;;9.70;99.90;;;;;;5029785;28;20068;-54
2024/02/20 09:21:04;;;;;;;27.85;10.65;;;9.70;99.90;;;;;;5038506;28;20090;-48
2024/02/20 09:23:32;;;;;;;34.13;10.82;;;9.90;99.90;;;;;;5041149;28;20116;-51
2024/02/20 09:25:58;;;;;;;39.60;11.50;;;10.00;99.90;;;;;;5040734;28;20132;-51
2024/02/20 09:28:23;;;;;;;35.65;12.98;;;10.20;99.90;;;;;;5023806;28;20105;-52
2024/02/20 09:30:49;;;;;;;27.67;8.10;;;10.30;99.90;;;;;;5049618;28;20384;-49
2024/02/20 09:33:18;;;;;;;33.20;9.80;;;10.30;99.90;;;;;;5043957;28;20039;-51
2024/02/20 09:35:43;;;;;;;31.58;12.07;;;10.30;99.90;;;;;;5045383;28;20040;-52
2024/02/20 09:38:10;;;;;;;19.73;7.63;;;10.30;99.90;;;;;;5045952;28;20037;-51
2024/02/20 09:40:35;;;;;;;34.53;12.45;;;10.40;99.90;;;;;;5033394;28;20060;-53
2024/02/20 09:43:01;;;;;;;34.75;11.48;;;10.40;99.90;;;;;;5037531;28;21056;-52
2024/02/20 09:45:28;;;;;;;28.30;8.15;;;10.40;99.90;;;;;;5047785;28;20037;-50
2024/02/20 09:47:54;;;;;;;23.02;8.40;;;10.30;99.90;;;;;;5049959;28;20013;-50
2024/02/20 09:50:20;;;;;;;20.70;6.80;;;10.40;99.90;;;;;;5049134;28;20040;-54
2024/02/20 09:52:50;;;;;;;26.73;7.22;;;10.30;99.90;;;;;;5034512;28;20024;-51
2024/02/20 09:55:21;;;;;;;25.02;7.07;;;10.20;99.90;;;;;;5051340;28;20429;-49
2024/02/20 09:57:49;;;;;;;26.73;6.72;;;10.30;99.90;;;;;;5047423;28;20082;-49
2024/02/20 10:00:16;;;;;;;20.27;6.35;;;10.40;99.90;;;;;;5048957;28;20044;-52
2024/02/20 10:02:44;;;;;;;19.30;5.82;;;10.60;99.90;;;;;;5042852;28;20029;-51
2024/02/20 10:05:17;;;;;;;27.15;6.50;;;10.50;99.90;;;;;;5044949;28;20518;-53
2024/02/20 10:07:43;;;;;;;27.67;7.95;;;10.10;99.90;;;;;;5045549;28;20078;-49
2024/02/20 10:10:10;;;;;;;21.70;6.63;;;10.10;99.90;;;;;;5034339;28;20124;-53
2024/02/20 10:12:37;;;;;;;26.38;5.78;;;10.20;99.90;;;;;;5036579;28;20029;-50
2024/02/20 10:15:06;;;;;;;22.98;5.53;;;10.30;99.90;;;;;;5040437;28;20029;-53
2024/02/20 10:17:32;;;;;;;25.10;4.78;;;10.60;99.90;;;;;;5038777;28;20040;-52
2024/02/20 10:20:11;;;;;;;16.58;5.18;;;10.70;99.90;;;;;;5044337;28;20027;-53
2024/02/20 10:22:40;;;;;;;27.27;5.55;;;10.90;99.90;;;;;;5045416;28;20029;-50
2024/02/20 10:25:12;;;;;;;36.20;7.70;;;11.00;99.90;;;;;;5044838;28;20488;-53
2024/02/20 10:27:38;;;;;;;49.10;16.98;;;11.10;99.90;;;;;;5036422;28;20033;-53
2024/02/20 10:30:05;;;;;;;25.40;6.43;;;11.10;99.90;;;;;;5042974;28;20032;-52
2024/02/20 10:32:34;;;;;;;18.60;4.93;;;11.00;99.90;;;;;;5049940;28;20029;-55
2024/02/20 10:35:01;;;;;;;23.63;7.28;;;10.90;99.90;;;;;;5043362;28;20031;-50
2024/02/20 10:37:28;;;;;;;20.20;5.20;;;11.00;99.90;;;;;;5041890;28;20534;-53
2024/02/20 10:40:22;;;;;;;17.55;4.72;;;11.00;99.90;;;;;;5032001;28;20402;-52
2024/02/20 10:42:49;;;;;;;29.88;6.80;;;11.00;99.90;;;;;;5022512;28;20056;-50
2024/02/20 10:45:15;;;;;;;15.23;4.72;;;11.00;99.90;;;;;;5009175;28;20029;-52
2024/02/20 10:47:45;;;;;;;79.65;28.83;;;11.00;99.90;;;;;;5042727;28;20044;-53
2024/02/20 10:50:13;;;;;;;47.88;17.30;;;11.20;99.90;;;;;;5043016;28;20022;-53
2024/02/20 10:52:39;;;;;;;38.28;10.95;;;11.20;99.90;;;;;;5048283;28;20021;-49
2024/02/20 10:55:12;;;;;;;27.90;7.60;;;11.10;99.90;;;;;;5043805;28;20037;-51
2024/02/20 10:57:41;;;;;;;37.60;15.10;;;11.00;99.90;;;;;;5025982;28;20035;-53
2024/02/20 11:00:11;;;;;;;32.45;10.60;;;11.00;99.90;;;;;;5022496;28;20107;-50
2024/02/20 11:02:38;;;;;;;18.58;6.47;;;11.10;99.90;;;;;;5043919;28;20025;-54
2024/02/20 11:05:09;;;;;;;23.05;6.90;;;11.20;99.90;;;;;;5042831;28;20032;-51
2024/02/20 11:07:35;;;;;;;36.97;12.02;;;11.30;99.90;;;;;;5041849;28;20104;-52
2024/02/20 11:10:17;;;;;;;24.88;5.97;;;11.30;99.90;;;;;;5043328;28;20065;-49
2024/02/20 11:12:43;;;;;;;27.35;9.18;;;11.10;99.90;;;;;;5039794;28;20021;-53
2024/02/20 11:15:17;;;;;;;103.57;39.80;;;11.10;99.90;;;;;;5043794;28;20371;-55
2024/02/20 11:17:42;;;;;;;53.00;19.85;;;11.20;99.90;;;;;;5043864;28;20684;-50
2024/02/20 11:20:15;;;;;;;37.40;13.48;;;11.10;99.90;;;;;;5039116;28;20045;-52
2024/02/20 11:22:42;;;;;;;20.20;6.97;;;11.00;99.90;;;;;;5042388;28;20091;-54
2024/02/20 11:25:09;;;;;;;29.60;6.05;;;11.00;99.90;;;;;;5061701;23;20499;-49
2024/02/20 11:27:48;;;;;;;25.50;7.68;;;11.00;99.90;;;;;;5042817;28;20078;-49
2024/02/20 11:30:16;;;;;;;21.30;7.78;;;11.10;99.90;;;;;;5042100;28;20056;-52
2024/02/20 11:32:42;;;;;;;27.30;8.88;;;11.10;99.90;;;;;;5046501;28;20045;-50
2024/02/20 11:35:32;;;;;;;19.80;6.53;;;11.00;99.90;;;;;;5042741;28;20057;-52
2024/02/20 11:37:59;;;;;;;24.10;8.73;;;11.10;99.90;;;;;;5046233;28;20447;-51
2024/02/20 11:40:29;;;;;;;27.27;6.10;;;11.00;99.90;;;;;;5030371;28;20522;-51
2024/02/20 11:42:58;;;;;;;24.25;6.90;;;11.00;99.90;;;;;;5040880;28;20059;-47
2024/02/20 11:45:26;;;;;;;31.80;9.20;;;11.00;99.90;;;;;;5053837;28;20609;-50
2024/02/20 11:48:04;;;;;;;61.92;16.63;;;11.00;99.90;;;;;;5051981;28;20104;-47
2024/02/20 11:50:31;;;;;;;124.90;37.88;;;11.10;99.90;;;;;;5048808;28;20020;-47
2024/02/20 11:53:09;;;;;;;27.35;7.93;;;11.10;99.90;;;;;;5041057;28;20403;-47
2024/02/20 11:55:35;;;;;;;18.02;4.63;;;11.10;99.90;;;;;;5045329;28;20071;-49
2024/02/20 11:58:04;;;;;;;32.50;8.88;;;11.00;99.90;;;;;;5037213;28;20071;-49
2024/02/20 12:00:32;;;;;;;29.40;7.78;;;11.00;99.90;;;;;;5043204;28;20082;-48
2024/02/20 12:03:00;;;;;;;19.55;4.95;;;11.00;99.90;;;;;;5043146;28;20032;-49
2024/02/20 12:05:40;;;;;;;24.75;7.18;;;10.90;99.90;;;;;;5042206;28;20036;-51
2024/02/20 12:08:17;;;;;;;20.20;5.50;;;10.90;99.90;;;;;;5038159;28;20111;-51
2024/02/20 12:10:43;;;;;;;53.38;14.90;;;10.90;99.90;;;;;;5038894;28;20053;-48
2024/02/20 12:13:16;;;;;;;35.22;11.68;;;11.00;99.90;;;;;;5037292;28;20033;-50
2024/02/20 12:15:49;;;;;;;23.02;5.82;;;11.10;99.90;;;;;;5034477;28;20031;-48
2024/02/20 12:18:28;;;;;;;16.88;6.15;;;11.10;99.90;;;;;;5041934;28;20486;-47
2024/02/20 12:21:09;;;;;;;23.08;6.18;;;11.20;99.90;;;;;;5041561;28;20090;-51
2024/02/20 12:23:39;;;;;;;25.77;4.43;;;11.20;99.90;;;;;;5041578;28;20120;-48
2024/02/20 12:26:09;;;;;;;14.10;4.95;;;11.00;99.90;;;;;;5043792;28;20024;-47
2024/02/20 12:28:35;;;;;;;18.60;5.55;;;11.00;99.90;;;;;;5039008;28;20191;-48
2024/02/20 12:31:02;;;;;;;22.40;5.03;;;11.10;99.90;;;;;;5042777;28;20025;-48
2024/02/20 12:33:28;;;;;;;21.95;5.05;;;11.10;99.90;;;;;;5039559;28;20579;-50
2024/02/20 12:35:57;;;;;;;20.02;4.30;;;11.00;99.90;;;;;;5038794;28;20033;-49
2024/02/20 12:38:23;;;;;;;19.50;5.05;;;11.10;99.90;;;;;;5036627;28;20033;-47
2024/02/20 12:40:49;;;;;;;26.50;5.25;;;11.00;99.90;;;;;;5025929;28;20099;-47